sensor_id;sensor_type;location;lat;lon;timestamp;temperature;humidity
13796;SHT30;40911;51.552;9.874;2023-09-19T00:01:00;16.39;90.23
13796;SHT30;40911;51.552;9.874;2023-09-19T00:03:22;16.42;90.45
13796;SHT30;40911;51.552;9.874;2023-09-19T00:05:45;16.38;90.66
13796;SHT30;40911;51.552;9.874;2023-09-19T00:08:08;16.39;90.61
13796;SHT30;40911;51.552;9.874;2023-09-19T00:10:30;16.38;90.61
13796;SHT30;40911;51.552;9.874;2023-09-19T00:12:55;16.29;91.30
13796;SHT30;40911;51.552;9.874;2023-09-19T00:15:16;16.26;91.32
13796;SHT30;40911;51.552;9.874;2023-09-19T00:17:40;16.30;91.31
13796;SHT30;40911;51.552;9.874;2023-09-19T00:20:04;16.29;91.46
13796;SHT30;40911;51.552;9.874;2023-09-19T00:22:29;16.30;91.52
13796;SHT30;40911;51.552;9.874;2023-09-19T00:24:50;16.38;91.28
13796;SHT30;40911;51.552;9.874;2023-09-19T00:27:12;16.33;91.68
13796;SHT30;40911;51.552;9.874;2023-09-19T00:29:34;16.33;92.00
13796;SHT30;40911;51.552;9.874;2023-09-19T00:31:55;16.35;91.75
13796;SHT30;40911;51.552;9.874;2023-09-19T00:34:20;16.36;91.79
13796;SHT30;40911;51.552;9.874;2023-09-19T00:36:42;16.43;91.38
13796;SHT30;40911;51.552;9.874;2023-09-19T00:39:04;16.36;92.00
13796;SHT30;40911;51.552;9.874;2023-09-19T00:41:26;16.42;91.72
13796;SHT30;40911;51.552;9.874;2023-09-19T00:43:50;16.43;91.79
13796;SHT30;40911;51.552;9.874;2023-09-19T00:46:12;16.38;92.20
13796;SHT30;40911;51.552;9.874;2023-09-19T00:48:38;16.42;92.25
13796;SHT30;40911;51.552;9.874;2023-09-19T00:51:05;16.36;92.09
13796;SHT30;40911;51.552;9.874;2023-09-19T00:53:27;16.39;91.90
13796;SHT30;40911;51.552;9.874;2023-09-19T00:55:49;16.36;92.08
13796;SHT30;40911;51.552;9.874;2023-09-19T00:58:12;16.35;92.23
13796;SHT30;40911;51.552;9.874;2023-09-19T01:00:33;16.39;92.08
13796;SHT30;40911;51.552;9.874;2023-09-19T01:02:55;16.32;92.13
13796;SHT30;40911;51.552;9.874;2023-09-19T01:05:17;16.30;92.13
13796;SHT30;40911;51.552;9.874;2023-09-19T01:07:40;16.25;92.44
13796;SHT30;40911;51.552;9.874;2023-09-19T01:10:03;16.12;92.92
13796;SHT30;40911;51.552;9.874;2023-09-19T01:12:32;16.14;92.72
13796;SHT30;40911;51.552;9.874;2023-09-19T01:14:59;16.15;92.68
13796;SHT30;40911;51.552;9.874;2023-09-19T01:17:29;16.05;93.05
13796;SHT30;40911;51.552;9.874;2023-09-19T01:20:11;16.08;92.70
13796;SHT30;40911;51.552;9.874;2023-09-19T01:22:40;16.04;92.87
13796;SHT30;40911;51.552;9.874;2023-09-19T01:28:20;15.92;93.22
13796;SHT30;40911;51.552;9.874;2023-09-19T01:30:45;15.98;92.80
13796;SHT30;40911;51.552;9.874;2023-09-19T01:33:10;15.90;93.07
13796;SHT30;40911;51.552;9.874;2023-09-19T01:35:32;15.80;93.50
13796;SHT30;40911;51.552;9.874;2023-09-19T01:37:54;15.80;93.50
13796;SHT30;40911;51.552;9.874;2023-09-19T01:40:16;15.85;93.13
13796;SHT30;40911;51.552;9.874;2023-09-19T01:42:42;15.75;93.51
13796;SHT30;40911;51.552;9.874;2023-09-19T01:45:11;15.73;93.45
13796;SHT30;40911;51.552;9.874;2023-09-19T01:47:38;15.77;93.33
13796;SHT30;40911;51.552;9.874;2023-09-19T01:50:12;15.71;93.51
13796;SHT30;40911;51.552;9.874;2023-09-19T01:52:45;15.67;93.54
13796;SHT30;40911;51.552;9.874;2023-09-19T01:55:09;15.70;93.25
13796;SHT30;40911;51.552;9.874;2023-09-19T01:57:35;15.69;93.24
13796;SHT30;40911;51.552;9.874;2023-09-19T02:00:01;15.66;93.31
13796;SHT30;40911;51.552;9.874;2023-09-19T02:02:27;15.69;92.95
13796;SHT30;40911;51.552;9.874;2023-09-19T02:04:50;15.67;92.85
13796;SHT30;40911;51.552;9.874;2023-09-19T02:07:13;15.69;92.47
13796;SHT30;40911;51.552;9.874;2023-09-19T02:09:37;15.67;92.41
13796;SHT30;40911;51.552;9.874;2023-09-19T02:11:59;15.69;92.38
13796;SHT30;40911;51.552;9.874;2023-09-19T02:14:21;15.64;92.34
13796;SHT30;40911;51.552;9.874;2023-09-19T02:16:42;15.64;92.58
13796;SHT30;40911;51.552;9.874;2023-09-19T02:19:05;15.61;92.72
13796;SHT30;40911;51.552;9.874;2023-09-19T02:21:29;15.60;92.60
13796;SHT30;40911;51.552;9.874;2023-09-19T02:23:51;15.60;92.68
13796;SHT30;40911;51.552;9.874;2023-09-19T02:26:12;15.56;92.77
13796;SHT30;40911;51.552;9.874;2023-09-19T02:28:34;15.56;92.62
13796;SHT30;40911;51.552;9.874;2023-09-19T02:30:56;15.46;92.95
13796;SHT30;40911;51.552;9.874;2023-09-19T02:33:17;15.50;92.31
13796;SHT30;40911;51.552;9.874;2023-09-19T02:35:39;15.44;92.34
13796;SHT30;40911;51.552;9.874;2023-09-19T02:38:03;15.52;91.39
13796;SHT30;40911;51.552;9.874;2023-09-19T02:40:26;15.43;91.70
13796;SHT30;40911;51.552;9.874;2023-09-19T02:42:53;15.43;91.38
13796;SHT30;40911;51.552;9.874;2023-09-19T02:45:16;15.36;91.19
13796;SHT30;40911;51.552;9.874;2023-09-19T02:47:40;15.40;90.74
13796;SHT30;40911;51.552;9.874;2023-09-19T02:50:02;15.38;90.22
13796;SHT30;40911;51.552;9.874;2023-09-19T02:55:42;15.25;90.65
13796;SHT30;40911;51.552;9.874;2023-09-19T02:58:06;15.35;89.63
13796;SHT30;40911;51.552;9.874;2023-09-19T03:00:28;15.31;90.06
13796;SHT30;40911;51.552;9.874;2023-09-19T03:02:50;15.23;89.74
13796;SHT30;40911;51.552;9.874;2023-09-19T03:05:14;15.25;89.22
13796;SHT30;40911;51.552;9.874;2023-09-19T03:07:36;15.26;88.92
13796;SHT30;40911;51.552;9.874;2023-09-19T03:09:58;15.18;89.22
13796;SHT30;40911;51.552;9.874;2023-09-19T03:12:21;15.18;89.29
13796;SHT30;40911;51.552;9.874;2023-09-19T03:14:43;15.18;89.14
13796;SHT30;40911;51.552;9.874;2023-09-19T03:17:04;15.16;89.25
13796;SHT30;40911;51.552;9.874;2023-09-19T03:19:26;15.13;89.62
13796;SHT30;40911;51.552;9.874;2023-09-19T03:21:49;15.16;89.77
13796;SHT30;40911;51.552;9.874;2023-09-19T03:24:11;15.19;89.60
13796;SHT30;40911;51.552;9.874;2023-09-19T03:26:32;15.16;89.48
13796;SHT30;40911;51.552;9.874;2023-09-19T03:28:56;15.11;89.85
13796;SHT30;40911;51.552;9.874;2023-09-19T03:31:17;15.06;89.89
13796;SHT30;40911;51.552;9.874;2023-09-19T03:33:39;15.06;89.57
13796;SHT30;40911;51.552;9.874;2023-09-19T03:36:02;15.05;89.39
13796;SHT30;40911;51.552;9.874;2023-09-19T03:38:25;15.04;89.10
13796;SHT30;40911;51.552;9.874;2023-09-19T03:40:47;15.02;88.99
13796;SHT30;40911;51.552;9.874;2023-09-19T03:43:09;15.02;88.94
13796;SHT30;40911;51.552;9.874;2023-09-19T03:45:31;14.89;89.54
13796;SHT30;40911;51.552;9.874;2023-09-19T03:47:55;14.88;89.66
13796;SHT30;40911;51.552;9.874;2023-09-19T03:50:17;14.78;89.69
13796;SHT30;40911;51.552;9.874;2023-09-19T03:52:38;14.77;89.90
13796;SHT30;40911;51.552;9.874;2023-09-19T03:55:00;14.67;90.29
13796;SHT30;40911;51.552;9.874;2023-09-19T03:57:22;14.56;90.46
13796;SHT30;40911;51.552;9.874;2023-09-19T03:59:44;14.56;90.45
13796;SHT30;40911;51.552;9.874;2023-09-19T04:02:08;14.61;90.07
13796;SHT30;40911;51.552;9.874;2023-09-19T04:04:32;14.56;89.75
13796;SHT30;40911;51.552;9.874;2023-09-19T04:06:54;14.57;89.55
13796;SHT30;40911;51.552;9.874;2023-09-19T04:09:15;14.52;89.42
13796;SHT30;40911;51.552;9.874;2023-09-19T04:11:37;14.60;88.78
13796;SHT30;40911;51.552;9.874;2023-09-19T04:13:59;14.56;88.91
13796;SHT30;40911;51.552;9.874;2023-09-19T04:16:21;14.49;89.16
13796;SHT30;40911;51.552;9.874;2023-09-19T04:18:43;14.53;89.37
13796;SHT30;40911;51.552;9.874;2023-09-19T04:21:05;14.47;89.60
13796;SHT30;40911;51.552;9.874;2023-09-19T04:23:27;14.56;89.59
13796;SHT30;40911;51.552;9.874;2023-09-19T04:25:48;14.59;89.19
13796;SHT30;40911;51.552;9.874;2023-09-19T04:28:10;14.59;89.23
13796;SHT30;40911;51.552;9.874;2023-09-19T04:30:33;14.61;89.51
13796;SHT30;40911;51.552;9.874;2023-09-19T04:32:54;14.61;89.60
13796;SHT30;40911;51.552;9.874;2023-09-19T04:35:17;14.60;89.56
13796;SHT30;40911;51.552;9.874;2023-09-19T04:37:40;14.64;89.72
13796;SHT30;40911;51.552;9.874;2023-09-19T04:40:02;14.65;89.62
13796;SHT30;40911;51.552;9.874;2023-09-19T04:42:26;14.65;89.71
13796;SHT30;40911;51.552;9.874;2023-09-19T04:44:47;14.61;89.42
13796;SHT30;40911;51.552;9.874;2023-09-19T04:47:10;14.57;89.42
13796;SHT30;40911;51.552;9.874;2023-09-19T04:49:33;14.53;89.50
13796;SHT30;40911;51.552;9.874;2023-09-19T04:51:56;14.53;89.48
13796;SHT30;40911;51.552;9.874;2023-09-19T04:54:18;14.49;89.62
13796;SHT30;40911;51.552;9.874;2023-09-19T04:56:40;14.44;90.06
13796;SHT30;40911;51.552;9.874;2023-09-19T04:59:01;14.46;89.47
13796;SHT30;40911;51.552;9.874;2023-09-19T05:01:25;14.56;89.04
13796;SHT30;40911;51.552;9.874;2023-09-19T05:03:46;14.64;88.88
13796;SHT30;40911;51.552;9.874;2023-09-19T05:06:12;14.60;88.95
13796;SHT30;40911;51.552;9.874;2023-09-19T05:08:35;14.57;89.26
13796;SHT30;40911;51.552;9.874;2023-09-19T05:10:57;14.59;88.81
13796;SHT30;40911;51.552;9.874;2023-09-19T05:13:19;14.57;89.13
13796;SHT30;40911;51.552;9.874;2023-09-19T05:15:40;14.57;89.02
13796;SHT30;40911;51.552;9.874;2023-09-19T05:18:02;14.61;88.59
13796;SHT30;40911;51.552;9.874;2023-09-19T05:20:24;14.56;89.27
13796;SHT30;40911;51.552;9.874;2023-09-19T05:22:49;14.65;88.74
13796;SHT30;40911;51.552;9.874;2023-09-19T05:25:12;14.67;88.87
13796;SHT30;40911;51.552;9.874;2023-09-19T05:27:36;14.64;88.77
13796;SHT30;40911;51.552;9.874;2023-09-19T05:29:58;14.70;88.91
13796;SHT30;40911;51.552;9.874;2023-09-19T05:32:19;14.71;88.80
13796;SHT30;40911;51.552;9.874;2023-09-19T05:34:41;14.75;88.73
13796;SHT30;40911;51.552;9.874;2023-09-19T05:37:03;14.67;89.47
13796;SHT30;40911;51.552;9.874;2023-09-19T05:39:27;14.78;89.19
13796;SHT30;40911;51.552;9.874;2023-09-19T05:41:50;14.80;88.88
13796;SHT30;40911;51.552;9.874;2023-09-19T05:44:12;14.83;88.86
13796;SHT30;40911;51.552;9.874;2023-09-19T05:46:34;14.87;88.48
13796;SHT30;40911;51.552;9.874;2023-09-19T05:48:55;14.91;89.19
13796;SHT30;40911;51.552;9.874;2023-09-19T05:51:17;14.89;88.80
13796;SHT30;40911;51.552;9.874;2023-09-19T05:53:43;14.98;88.49
13796;SHT30;40911;51.552;9.874;2023-09-19T05:56:05;14.98;88.49
13796;SHT30;40911;51.552;9.874;2023-09-19T05:58:27;14.96;88.20
13796;SHT30;40911;51.552;9.874;2023-09-19T06:00:50;15.01;88.20
13796;SHT30;40911;51.552;9.874;2023-09-19T06:03:12;14.95;88.48
13796;SHT30;40911;51.552;9.874;2023-09-19T06:05:35;14.96;88.59
13796;SHT30;40911;51.552;9.874;2023-09-19T06:07:56;15.02;88.18
13796;SHT30;40911;51.552;9.874;2023-09-19T06:10:20;14.99;88.25
13796;SHT30;40911;51.552;9.874;2023-09-19T06:12:43;14.96;88.72
13796;SHT30;40911;51.552;9.874;2023-09-19T06:15:06;14.96;88.62
13796;SHT30;40911;51.552;9.874;2023-09-19T06:17:29;15.01;88.67
13796;SHT30;40911;51.552;9.874;2023-09-19T06:19:51;14.99;88.96
13796;SHT30;40911;51.552;9.874;2023-09-19T06:22:14;14.99;88.98
13796;SHT30;40911;51.552;9.874;2023-09-19T06:24:36;15.01;88.48
13796;SHT30;40911;51.552;9.874;2023-09-19T06:26:58;15.05;88.74
13796;SHT30;40911;51.552;9.874;2023-09-19T06:29:21;15.01;89.08
13796;SHT30;40911;51.552;9.874;2023-09-19T06:31:45;15.01;88.50
13796;SHT30;40911;51.552;9.874;2023-09-19T06:34:07;15.02;88.47
13796;SHT30;40911;51.552;9.874;2023-09-19T06:36:28;15.11;88.65
13796;SHT30;40911;51.552;9.874;2023-09-19T06:38:50;15.08;88.52
13796;SHT30;40911;51.552;9.874;2023-09-19T06:41:12;15.11;88.23
13796;SHT30;40911;51.552;9.874;2023-09-19T06:43:36;15.09;87.88
13796;SHT30;40911;51.552;9.874;2023-09-19T06:45:57;15.19;88.24
13796;SHT30;40911;51.552;9.874;2023-09-19T06:48:21;15.11;87.88
13796;SHT30;40911;51.552;9.874;2023-09-19T06:50:45;15.22;87.58
13796;SHT30;40911;51.552;9.874;2023-09-19T06:53:08;15.16;87.17
13796;SHT30;40911;51.552;9.874;2023-09-19T06:55:30;15.31;87.49
13796;SHT30;40911;51.552;9.874;2023-09-19T06:57:52;15.38;86.98
13796;SHT30;40911;51.552;9.874;2023-09-19T07:00:15;15.40;86.76
13796;SHT30;40911;51.552;9.874;2023-09-19T07:02:38;15.33;85.96
13796;SHT30;40911;51.552;9.874;2023-09-19T07:05:02;15.35;86.21
13796;SHT30;40911;51.552;9.874;2023-09-19T07:07:25;15.36;85.71
13796;SHT30;40911;51.552;9.874;2023-09-19T07:09:47;15.43;85.92
13796;SHT30;40911;51.552;9.874;2023-09-19T07:12:09;15.44;84.70
13796;SHT30;40911;51.552;9.874;2023-09-19T07:14:32;15.43;83.98
13796;SHT30;40911;51.552;9.874;2023-09-19T07:16:53;15.40;82.20
13796;SHT30;40911;51.552;9.874;2023-09-19T07:19:15;15.38;81.97
13796;SHT30;40911;51.552;9.874;2023-09-19T07:21:38;15.59;83.07
13796;SHT30;40911;51.552;9.874;2023-09-19T07:24:00;15.61;83.96
13796;SHT30;40911;51.552;9.874;2023-09-19T07:26:23;15.56;83.86
13796;SHT30;40911;51.552;9.874;2023-09-19T07:28:45;15.53;83.37
13796;SHT30;40911;51.552;9.874;2023-09-19T07:31:07;15.67;83.40
13796;SHT30;40911;51.552;9.874;2023-09-19T07:33:30;15.60;82.63
13796;SHT30;40911;51.552;9.874;2023-09-19T07:35:52;15.73;82.89
13796;SHT30;40911;51.552;9.874;2023-09-19T07:38:15;15.77;82.42
13796;SHT30;40911;51.552;9.874;2023-09-19T07:40:37;15.94;83.26
13796;SHT30;40911;51.552;9.874;2023-09-19T07:42:57;15.85;82.08
13796;SHT30;40911;51.552;9.874;2023-09-19T07:45:22;15.91;81.75
13796;SHT30;40911;51.552;9.874;2023-09-19T07:47:45;16.04;81.92
13796;SHT30;40911;51.552;9.874;2023-09-19T07:50:07;15.88;80.84
13796;SHT30;40911;51.552;9.874;2023-09-19T07:52:30;15.90;81.45
13796;SHT30;40911;51.552;9.874;2023-09-19T07:54:55;16.02;81.54
13796;SHT30;40911;51.552;9.874;2023-09-19T07:57:18;15.95;81.63
13796;SHT30;40911;51.552;9.874;2023-09-19T07:59:40;15.95;81.08
13796;SHT30;40911;51.552;9.874;2023-09-19T08:02:02;15.92;80.96
13796;SHT30;40911;51.552;9.874;2023-09-19T08:04:25;16.04;81.26
13796;SHT30;40911;51.552;9.874;2023-09-19T08:06:47;16.05;81.08
13796;SHT30;40911;51.552;9.874;2023-09-19T08:09:12;16.01;79.84
13796;SHT30;40911;51.552;9.874;2023-09-19T08:11:42;16.11;81.12
13796;SHT30;40911;51.552;9.874;2023-09-19T08:14:05;16.18;80.16
13796;SHT30;40911;51.552;9.874;2023-09-19T08:16:28;16.12;78.92
13796;SHT30;40911;51.552;9.874;2023-09-19T08:18:49;16.07;79.13
13796;SHT30;40911;51.552;9.874;2023-09-19T08:21:15;16.07;79.15
13796;SHT30;40911;51.552;9.874;2023-09-19T08:23:37;15.99;78.60
13796;SHT30;40911;51.552;9.874;2023-09-19T08:25:58;15.97;78.69
13796;SHT30;40911;51.552;9.874;2023-09-19T08:28:25;16.01;78.62
13796;SHT30;40911;51.552;9.874;2023-09-19T08:30:46;16.04;78.67
13796;SHT30;40911;51.552;9.874;2023-09-19T08:33:08;16.02;78.56
13796;SHT30;40911;51.552;9.874;2023-09-19T08:35:30;16.07;78.20
13796;SHT30;40911;51.552;9.874;2023-09-19T08:37:52;16.01;78.03
13796;SHT30;40911;51.552;9.874;2023-09-19T08:40:14;16.21;78.02
13796;SHT30;40911;51.552;9.874;2023-09-19T08:42:49;16.36;78.42
13796;SHT30;40911;51.552;9.874;2023-09-19T08:45:13;16.40;77.81
13796;SHT30;40911;51.552;9.874;2023-09-19T08:47:42;16.64;77.93
13796;SHT30;40911;51.552;9.874;2023-09-19T08:50:11;16.49;77.10
13796;SHT30;40911;51.552;9.874;2023-09-19T08:52:41;16.68;77.49
13796;SHT30;40911;51.552;9.874;2023-09-19T08:55:06;16.81;77.44
13796;SHT30;40911;51.552;9.874;2023-09-19T08:57:33;16.74;77.03
13796;SHT30;40911;51.552;9.874;2023-09-19T08:59:56;16.90;77.65
13796;SHT30;40911;51.552;9.874;2023-09-19T09:02:22;16.97;77.03
13796;SHT30;40911;51.552;9.874;2023-09-19T09:04:46;17.01;76.48
13796;SHT30;40911;51.552;9.874;2023-09-19T09:07:10;17.07;77.38
13796;SHT30;40911;51.552;9.874;2023-09-19T09:09:34;16.84;75.80
13796;SHT30;40911;51.552;9.874;2023-09-19T09:11:57;16.83;75.90
13796;SHT30;40911;51.552;9.874;2023-09-19T09:14:20;17.38;75.18
13796;SHT30;40911;51.552;9.874;2023-09-19T09:16:43;17.28;75.81
13796;SHT30;40911;51.552;9.874;2023-09-19T09:19:07;17.36;75.31
13796;SHT30;40911;51.552;9.874;2023-09-19T09:21:28;17.22;75.19
13796;SHT30;40911;51.552;9.874;2023-09-19T09:23:50;17.52;74.67
13796;SHT30;40911;51.552;9.874;2023-09-19T09:26:13;17.67;74.87
13796;SHT30;40911;51.552;9.874;2023-09-19T09:28:35;17.65;75.61
13796;SHT30;40911;51.552;9.874;2023-09-19T09:30:59;17.39;74.30
13796;SHT30;40911;51.552;9.874;2023-09-19T09:33:23;17.16;74.73
13796;SHT30;40911;51.552;9.874;2023-09-19T09:35:53;17.39;75.16
13796;SHT30;40911;51.552;9.874;2023-09-19T09:38:16;17.71;74.09
13796;SHT30;40911;51.552;9.874;2023-09-19T09:40:46;18.12;74.39
13796;SHT30;40911;51.552;9.874;2023-09-19T09:43:25;17.77;73.64
13796;SHT30;40911;51.552;9.874;2023-09-19T09:46:06;17.81;74.39
13796;SHT30;40911;51.552;9.874;2023-09-19T09:48:32;18.00;73.93
13796;SHT30;40911;51.552;9.874;2023-09-19T09:50:54;17.93;72.61
13796;SHT30;40911;51.552;9.874;2023-09-19T09:53:20;17.77;73.93
13796;SHT30;40911;51.552;9.874;2023-09-19T09:56:02;18.38;73.19
13796;SHT30;40911;51.552;9.874;2023-09-19T09:58:26;17.93;73.38
13796;SHT30;40911;51.552;9.874;2023-09-19T10:00:53;17.91;72.59
13796;SHT30;40911;51.552;9.874;2023-09-19T10:03:19;18.04;73.02
13796;SHT30;40911;51.552;9.874;2023-09-19T10:05:44;18.18;73.49
13796;SHT30;40911;51.552;9.874;2023-09-19T10:08:12;18.00;72.91
13796;SHT30;40911;51.552;9.874;2023-09-19T10:10:39;17.86;72.88
13796;SHT30;40911;51.552;9.874;2023-09-19T10:13:14;18.60;74.06
13796;SHT30;40911;51.552;9.874;2023-09-19T10:15:39;18.45;71.69
13796;SHT30;40911;51.552;9.874;2023-09-19T10:18:04;18.21;71.96
13796;SHT30;40911;51.552;9.874;2023-09-19T10:20:26;18.28;71.68
13796;SHT30;40911;51.552;9.874;2023-09-19T10:22:57;18.19;71.49
13796;SHT30;40911;51.552;9.874;2023-09-19T10:25:23;18.12;71.34
13796;SHT30;40911;51.552;9.874;2023-09-19T10:27:46;18.56;72.40
13796;SHT30;40911;51.552;9.874;2023-09-19T10:30:10;18.14;71.54
13796;SHT30;40911;51.552;9.874;2023-09-19T10:32:33;18.55;70.83
13796;SHT30;40911;51.552;9.874;2023-09-19T10:34:57;18.30;71.29
13796;SHT30;40911;51.552;9.874;2023-09-19T10:37:22;17.97;70.83
13796;SHT30;40911;51.552;9.874;2023-09-19T10:39:46;17.97;70.88
13796;SHT30;40911;51.552;9.874;2023-09-19T10:42:14;17.98;70.86
13796;SHT30;40911;51.552;9.874;2023-09-19T10:44:38;18.29;71.93
13796;SHT30;40911;51.552;9.874;2023-09-19T10:47:03;18.26;70.37
13796;SHT30;40911;51.552;9.874;2023-09-19T10:49:27;18.15;70.38
13796;SHT30;40911;51.552;9.874;2023-09-19T10:51:55;18.15;69.84
13796;SHT30;40911;51.552;9.874;2023-09-19T10:54:19;18.38;70.61
13796;SHT30;40911;51.552;9.874;2023-09-19T10:56:46;18.14;70.07
13796;SHT30;40911;51.552;9.874;2023-09-19T10:59:13;18.22;69.36
13796;SHT30;40911;51.552;9.874;2023-09-19T11:01:45;18.00;68.74
13796;SHT30;40911;51.552;9.874;2023-09-19T11:04:22;18.21;68.81
13796;SHT30;40911;51.552;9.874;2023-09-19T11:06:59;18.41;68.75
13796;SHT30;40911;51.552;9.874;2023-09-19T11:09:24;18.12;68.87
13796;SHT30;40911;51.552;9.874;2023-09-19T11:11:48;18.33;68.73
13796;SHT30;40911;51.552;9.874;2023-09-19T11:14:41;18.75;68.98
13796;SHT30;40911;51.552;9.874;2023-09-19T11:23:20;19.01;68.04
13796;SHT30;40911;51.552;9.874;2023-09-19T11:25:46;18.70;68.26
13796;SHT30;40911;51.552;9.874;2023-09-19T11:28:33;18.75;67.41
13796;SHT30;40911;51.552;9.874;2023-09-19T11:30:57;18.77;67.71
13796;SHT30;40911;51.552;9.874;2023-09-19T11:33:21;18.69;66.44
13796;SHT30;40911;51.552;9.874;2023-09-19T11:36:02;18.81;67.02
13796;SHT30;40911;51.552;9.874;2023-09-19T11:38:57;18.94;66.40
13796;SHT30;40911;51.552;9.874;2023-09-19T11:41:37;18.60;66.04
13796;SHT30;40911;51.552;9.874;2023-09-19T11:44:33;18.80;66.94
13796;SHT30;40911;51.552;9.874;2023-09-19T11:47:00;18.80;65.91
13796;SHT30;40911;51.552;9.874;2023-09-19T11:49:26;19.24;66.25
13796;SHT30;40911;51.552;9.874;2023-09-19T11:51:51;19.39;66.26
13796;SHT30;40911;51.552;9.874;2023-09-19T11:54:13;19.23;63.98
13796;SHT30;40911;51.552;9.874;2023-09-19T11:56:39;19.21;63.02
13796;SHT30;40911;51.552;9.874;2023-09-19T11:59:01;19.46;63.80
13796;SHT30;40911;51.552;9.874;2023-09-19T12:01:25;19.51;63.30
13796;SHT30;40911;51.552;9.874;2023-09-19T12:03:53;19.55;63.71
13796;SHT30;40911;51.552;9.874;2023-09-19T12:06:15;19.87;64.15
13796;SHT30;40911;51.552;9.874;2023-09-19T12:08:39;19.23;64.74
13796;SHT30;40911;51.552;9.874;2023-09-19T12:11:04;19.43;63.86
13796;SHT30;40911;51.552;9.874;2023-09-19T12:13:28;19.89;63.18
13796;SHT30;40911;51.552;9.874;2023-09-19T12:15:51;20.25;64.10
13796;SHT30;40911;51.552;9.874;2023-09-19T12:18:26;20.04;62.00
13796;SHT30;40911;51.552;9.874;2023-09-19T12:20:50;20.10;62.51
13796;SHT30;40911;51.552;9.874;2023-09-19T12:23:13;19.74;63.40
13796;SHT30;40911;51.552;9.874;2023-09-19T12:25:41;19.80;64.34
13796;SHT30;40911;51.552;9.874;2023-09-19T12:28:04;19.53;63.80
13796;SHT30;40911;51.552;9.874;2023-09-19T12:30:28;19.03;63.36
13796;SHT30;40911;51.552;9.874;2023-09-19T12:32:54;19.59;62.95
13796;SHT30;40911;51.552;9.874;2023-09-19T12:35:26;19.58;63.54
13796;SHT30;40911;51.552;9.874;2023-09-19T12:37:52;20.14;62.96
13796;SHT30;40911;51.552;9.874;2023-09-19T12:40:15;20.28;62.18
13796;SHT30;40911;51.552;9.874;2023-09-19T12:42:38;20.07;62.13
13796;SHT30;40911;51.552;9.874;2023-09-19T12:45:01;20.24;61.76
13796;SHT30;40911;51.552;9.874;2023-09-19T12:47:24;20.10;61.47
13796;SHT30;40911;51.552;9.874;2023-09-19T12:50:11;19.79;62.85
13796;SHT30;40911;51.552;9.874;2023-09-19T12:52:37;19.77;63.32
13796;SHT30;40911;51.552;9.874;2023-09-19T12:55:00;19.28;64.02
13796;SHT30;40911;51.552;9.874;2023-09-19T12:57:24;19.31;64.29
13796;SHT30;40911;51.552;9.874;2023-09-19T12:59:46;20.11;63.85
13796;SHT30;40911;51.552;9.874;2023-09-19T13:02:08;20.35;63.42
13796;SHT30;40911;51.552;9.874;2023-09-19T13:04:38;20.24;62.52
13796;SHT30;40911;51.552;9.874;2023-09-19T13:07:02;20.28;62.81
13796;SHT30;40911;51.552;9.874;2023-09-19T13:09:25;20.93;62.44
13796;SHT30;40911;51.552;9.874;2023-09-19T13:11:55;20.60;62.21
13796;SHT30;40911;51.552;9.874;2023-09-19T13:14:22;20.21;62.88
13796;SHT30;40911;51.552;9.874;2023-09-19T13:16:54;20.22;63.47
13796;SHT30;40911;51.552;9.874;2023-09-19T13:19:39;20.00;63.77
13796;SHT30;40911;51.552;9.874;2023-09-19T13:22:01;20.17;63.73
13796;SHT30;40911;51.552;9.874;2023-09-19T13:24:24;20.41;63.77
13796;SHT30;40911;51.552;9.874;2023-09-19T13:26:47;20.55;61.99
13796;SHT30;40911;51.552;9.874;2023-09-19T13:29:11;20.60;62.74
13796;SHT30;40911;51.552;9.874;2023-09-19T13:31:33;20.65;62.75
13796;SHT30;40911;51.552;9.874;2023-09-19T13:33:56;20.60;62.24
13796;SHT30;40911;51.552;9.874;2023-09-19T13:36:17;20.83;61.65
13796;SHT30;40911;51.552;9.874;2023-09-19T13:38:40;21.04;61.41
13796;SHT30;40911;51.552;9.874;2023-09-19T13:41:03;20.60;61.56
13796;SHT30;40911;51.552;9.874;2023-09-19T13:43:24;20.92;61.21
13796;SHT30;40911;51.552;9.874;2023-09-19T13:45:47;21.00;61.52
13796;SHT30;40911;51.552;9.874;2023-09-19T13:48:10;20.48;62.36
13796;SHT30;40911;51.552;9.874;2023-09-19T13:50:32;20.06;62.12
13796;SHT30;40911;51.552;9.874;2023-09-19T13:52:56;20.69;62.12
13796;SHT30;40911;51.552;9.874;2023-09-19T13:55:21;21.14;61.96
13796;SHT30;40911;51.552;9.874;2023-09-19T13:57:42;20.35;63.59
13796;SHT30;40911;51.552;9.874;2023-09-19T14:00:06;20.56;62.47
13796;SHT30;40911;51.552;9.874;2023-09-19T14:02:32;20.24;63.24
13796;SHT30;40911;51.552;9.874;2023-09-19T14:04:53;20.27;62.87
13796;SHT30;40911;51.552;9.874;2023-09-19T14:07:15;20.80;62.09
13796;SHT30;40911;51.552;9.874;2023-09-19T14:09:38;21.17;61.60
13796;SHT30;40911;51.552;9.874;2023-09-19T14:11:59;20.35;62.77
13796;SHT30;40911;51.552;9.874;2023-09-19T14:14:21;20.52;62.39
13796;SHT30;40911;51.552;9.874;2023-09-19T14:16:43;19.90;64.08
13796;SHT30;40911;51.552;9.874;2023-09-19T14:19:07;19.96;62.98
13796;SHT30;40911;51.552;9.874;2023-09-19T14:21:29;19.97;63.74
13796;SHT30;40911;51.552;9.874;2023-09-19T14:23:51;19.84;63.15
13796;SHT30;40911;51.552;9.874;2023-09-19T14:26:15;19.53;64.08
13796;SHT30;40911;51.552;9.874;2023-09-19T14:28:37;19.41;63.49
13796;SHT30;40911;51.552;9.874;2023-09-19T14:31:03;19.89;64.93
13796;SHT30;40911;51.552;9.874;2023-09-19T14:33:25;20.28;62.75
13796;SHT30;40911;51.552;9.874;2023-09-19T14:35:49;19.77;64.60
13796;SHT30;40911;51.552;9.874;2023-09-19T14:38:10;19.82;63.86
13796;SHT30;40911;51.552;9.874;2023-09-19T14:40:31;19.84;64.26
13796;SHT30;40911;51.552;9.874;2023-09-19T14:42:53;20.21;63.34
13796;SHT30;40911;51.552;9.874;2023-09-19T14:45:15;20.16;63.37
13796;SHT30;40911;51.552;9.874;2023-09-19T14:47:38;20.01;62.80
13796;SHT30;40911;51.552;9.874;2023-09-19T14:50:01;19.41;64.36
13796;SHT30;40911;51.552;9.874;2023-09-19T14:52:28;19.72;63.88
13796;SHT30;40911;51.552;9.874;2023-09-19T14:54:49;19.30;64.74
13796;SHT30;40911;51.552;9.874;2023-09-19T14:57:11;19.27;65.04
13796;SHT30;40911;51.552;9.874;2023-09-19T14:59:34;19.27;65.37
13796;SHT30;40911;51.552;9.874;2023-09-19T15:01:57;19.03;64.96
13796;SHT30;40911;51.552;9.874;2023-09-19T15:04:19;19.07;65.57
13796;SHT30;40911;51.552;9.874;2023-09-19T15:06:41;18.97;65.76
13796;SHT30;40911;51.552;9.874;2023-09-19T15:09:04;18.97;65.06
13796;SHT30;40911;51.552;9.874;2023-09-19T15:11:28;19.28;65.42
13796;SHT30;40911;51.552;9.874;2023-09-19T15:13:52;19.03;65.07
13796;SHT30;40911;51.552;9.874;2023-09-19T15:16:14;19.10;66.31
13796;SHT30;40911;51.552;9.874;2023-09-19T15:18:36;18.91;65.40
13796;SHT30;40911;51.552;9.874;2023-09-19T15:21:00;19.87;63.38
13796;SHT30;40911;51.552;9.874;2023-09-19T15:23:22;19.55;63.74